EYPA

Palanga International Airport

Palanga, Lithuania
METAR EYPA 221750Z 34004KT 300V020 CAVOK 06/02 Q1016
Observed Flight Rules
Apr-22 @ 17:50 UTC (22 minutes ago) Visual Flight Rules
Wind Visibility Clouds
340° at 4 knots 10,000+ meters
  • Clear skies
Temperatures Readings
Current 6°C / 43°F
Dewpoint 2°C / 36°F
Humidity 76%
Altimeter 30" Hg
Pressure 1016 hPa
Elevation 10
METAR EYPA 221750Z 34004KT 300V020 CAVOK 06/02 Q1016
Observed Flight Rules
Apr-22 @ 17:50 UTC
(22 minutes ago)
VFR
Wind Visibility
340° at 4 knots 10,000+ meters
Clouds
  • Clear skies
Temperature Dewpoint
6°C / 43°F 2°C / 36°F
Humidity Altimeter Pressure
76% 30" Hg 1016 hPa